Ahaus

DE-0508 · Renania del Norte-Westfalia, Alemania

METAR pasados DE-0508 · Ahaus

A continuación puedes ver los METAR de los últimos días. Selecciona un año para ver los METAR más antiguos, desde el año 2007 en adelante.

14 de junio de 2024

Hora Código Tiempo Temp. Visibilidad Cielo nuboso Viento METAR/SPECI
10:20
V
17 °C 10 km+ - 190° 190° 6 kt METAR EDDG 140820Z AUTO 19006KT 150V210 CAVOK 17/09 Q1008 NOSIG
09:50
V
17 °C 10 km+ - 180° 180° 8 kt METAR EDDG 140750Z AUTO 18008KT 150V220 9999 -RA NSC 17/09 Q1008 NOSIG
09:20
V
16 °C 10 km+ - 190° 190° 6 kt METAR EDDG 140720Z AUTO 19006KT 160V230 CAVOK 16/09 Q1008 NOSIG
08:50
V
16 °C 10 km+ - 190° 190° 6 kt METAR EDDG 140650Z AUTO 19006KT 150V230 CAVOK 16/09 Q1009 NOSIG
08:20
V
16 °C 10 km+ - 180° 180° 5 kt METAR EDDG 140620Z AUTO 18005KT 130V220 9999 FEW049 16/09 Q1009 NOSIG
07:50
V
15 °C 10 km+ - 160° 160° 4 kt METAR EDDG 140550Z AUTO 16004KT CAVOK 15/09 Q1009 NOSIG
07:20
V
14 °C 10 km+ - 200° 200° 5 kt METAR EDDG 140520Z AUTO 20005KT 160V250 9999 FEW043 14/08 Q1009 NOSIG
06:50
V
14 °C 10 km+ - 150° 150° 5 kt METAR EDDG 140450Z AUTO 15005KT 120V180 CAVOK 14/08 Q1009 NOSIG
06:20
V
13 °C 10 km+ - 160° 160° 5 kt METAR EDDG 140420Z AUTO 16005KT 130V190 9999 -RADZ NSC 13/07 Q1009 TEMPO 22007KT
05:50
V
13 °C 10 km+ - 120° 120° 4 kt METAR EDDG 140350Z AUTO 12004KT 080V150 CAVOK 13/07 Q1009 TEMPO 21008KT
05:20
V
13 °C 10 km+ - 120° 120° 3 kt METAR EDDG 140320Z AUTO 12003KT 060V170 CAVOK 13/07 Q1009 NOSIG
04:50
V
13 °C 10 km+ - 120° 120° 3 kt METAR EDDG 140250Z AUTO 12003KT 060V190 CAVOK 13/07 Q1009 NOSIG
04:20
V
13 °C 10 km+ - 130° 130° 4 kt METAR EDDG 140220Z AUTO 13004KT 080V170 CAVOK 13/07 Q1009 NOSIG
03:50
V
14 °C 10 km+ - 120° 120° 3 kt METAR EDDG 140150Z AUTO 12003KT 070V160 CAVOK 14/07 Q1010 NOSIG
03:20
V
14 °C 10 km+ - 130° 130° 5 kt METAR EDDG 140120Z AUTO 13005KT CAVOK 14/07 Q1010 NOSIG
02:50
V
14 °C 10 km+ - 140° 140° 6 kt METAR EDDG 140050Z AUTO 14006KT CAVOK 14/07 Q1010
02:20
V
14 °C 10 km+ - 140° 140° 5 kt METAR EDDG 140020Z AUTO 14005KT CAVOK 14/07 Q1011 NOSIG
01:50
V
14 °C 10 km+ - 140° 140° 6 kt METAR EDDG 132350Z AUTO 14006KT CAVOK 14/07 Q1011 NOSIG
01:20
V
14 °C 10 km+ - 140° 140° 5 kt METAR EDDG 132320Z AUTO 14005KT 110V180 CAVOK 14/07 Q1011 NOSIG
00:50
V
14 °C 10 km+ - 140° 140° 4 kt METAR EDDG 132250Z AUTO 14004KT CAVOK 14/07 Q1012 NOSIG
00:20
V
15 °C 10 km+ - 140° 140° 5 kt METAR EDDG 132220Z AUTO 14005KT 100V160 CAVOK 15/07 Q1012 NOSIG

13 de junio de 2024

Hora Código Tiempo Temp. Visibilidad Cielo nuboso Viento METAR/SPECI
23:50
V
15 °C 10 km+ - 140° 140° 5 kt METAR EDDG 132150Z AUTO 14005KT 110V170 CAVOK 15/07 Q1012 NOSIG
23:20
V
14 °C 10 km+ - 130° 130° 4 kt METAR EDDG 132120Z AUTO 13004KT 100V170 CAVOK 14/07 Q1012 NOSIG
22:50
V
14 °C 10 km+ - 140° 140° 4 kt METAR EDDG 132050Z AUTO 14004KT 110V180 CAVOK 14/08 Q1013 NOSIG
22:20
V
14 °C 10 km+ - 130° 130° 3 kt METAR EDDG 132020Z AUTO 13003KT 100V160 CAVOK 14/08 Q1013 NOSIG
21:50
V
15 °C 10 km+ - 130° 130° 3 kt METAR EDDG 131950Z AUTO 13003KT 090V160 CAVOK 15/08 Q1013 NOSIG
21:20
V
15 °C 10 km+ - 130° 130° 3 kt METAR EDDG 131920Z AUTO 13003KT 090V150 CAVOK 15/08 Q1013 NOSIG
20:50
V
16 °C 10 km+ - Var Var 2 kt METAR EDDG 131850Z AUTO VRB02KT CAVOK 16/08 Q1013 NOSIG
20:20
V
18 °C 10 km+ - 180° 180° 3 kt METAR EDDG 131820Z AUTO 18003KT 140V210 CAVOK 18/06 Q1013 NOSIG
19:50
V
18 °C 10 km+ - 190° 190° 5 kt METAR EDDG 131750Z AUTO 19005KT 150V220 CAVOK 18/05 Q1014 NOSIG
19:20
V
19 °C 10 km+ - 180° 180° 5 kt METAR EDDG 131720Z AUTO 18005KT 140V240 CAVOK 19/05 Q1014 NOSIG
18:50
V
19 °C 10 km+ - 190° 190° 6 kt METAR EDDG 131650Z AUTO 19006KT 150V230 CAVOK 19/04 Q1014 NOSIG
17:50
V
19 °C 10 km+ - 200° 200° 9 kt METAR EDDG 131550Z AUTO 20009KT 160V230 CAVOK 19/04 Q1015 NOSIG
17:20
V
18 °C 10 km+ - Var Var 6 kt METAR EDDG 131520Z AUTO VRB06KT CAVOK 18/04 Q1015 NOSIG
16:50
V
18 °C 10 km+ - 190° 190° 6 kt METAR EDDG 131450Z AUTO 19006KT 150V230 CAVOK 18/04 Q1015 NOSIG
16:20
V
18 °C 10 km+ - 210° 210° 7 kt METAR EDDG 131420Z AUTO 21007KT 150V240 CAVOK 18/05 Q1015 NOSIG
15:50
V
18 °C 10 km+ - 190° 190° 6 kt METAR EDDG 131350Z AUTO 19006KT 150V250 CAVOK 18/05 Q1016 NOSIG
15:20
V
18 °C 10 km+ - 220° 220° 8 kt METAR EDDG 131320Z AUTO 22008KT 180V250 CAVOK 18/05 Q1016 NOSIG
14:50
V
18 °C 10 km+ - 200° 200° 7 kt METAR EDDG 131250Z AUTO 20007KT 140V250 9999 FEW048 18/06 Q1016 NOSIG
14:20
V
17 °C 10 km+ 4.600 ft 230° 230° 7 kt METAR EDDG 131220Z AUTO 23007KT 130V270 9999 BKN046 17/06 Q1016 NOSIG
13:50
V
16 °C 10 km+ 4.400 ft Var Var 4 kt METAR EDDG 131150Z AUTO VRB04KT 9999 BKN044 16/05 Q1017 NOSIG
13:20
V
16 °C 10 km+ 4.200 ft 210° 210° 6 kt METAR EDDG 131120Z AUTO 21006KT 160V260 9999 BKN042 16/06 Q1017 NOSIG
12:50
V
15 °C 10 km+ 4.000 ft 240° 240° 5 kt METAR EDDG 131050Z AUTO 24005KT 200V280 9999 BKN040 BKN047 15/06 Q1017 NOSIG
12:20
V
16 °C 10 km+ 3.700 ft 210° 210° 5 kt METAR EDDG 131020Z AUTO 21005KT 120V290 9999 BKN037 BKN048 16/06 Q1017 NOSIG
11:50
V
15 °C 10 km+ - 220° 220° 7 kt METAR EDDG 130950Z AUTO 22007KT 160V290 9999 FEW036 SCT045 15/06 Q1018 NOSIG
11:20
V
14 °C 10 km+ - 210° 210° 6 kt METAR EDDG 130920Z AUTO 21006KT 140V250 9999 FEW031 14/06 Q1018 NOSIG
10:50
V
14 °C 10 km+ - 180° 180° 7 kt METAR EDDG 130850Z AUTO 18007KT 150V240 CAVOK 14/06 Q1018 NOSIG
10:20
V
13 °C 10 km+ - 180° 180° 6 kt METAR EDDG 130820Z AUTO 18006KT 150V250 CAVOK 13/06 Q1018 NOSIG
09:50
V
14 °C 10 km+ - 220° 220° 8 kt METAR EDDG 130750Z AUTO 22008KT 190V250 CAVOK 14/06 Q1018 NOSIG
09:20
V
13 °C 10 km+ - 210° 210° 7 kt METAR EDDG 130720Z AUTO 21007KT 120V250 CAVOK 13/07 Q1018 NOSIG
08:50
V
13 °C 10 km+ - 200° 200° 6 kt METAR EDDG 130650Z AUTO 20006KT 160V260 CAVOK 13/08 Q1018 NOSIG
08:20
V
11 °C 10 km+ - 210° 210° 5 kt METAR EDDG 130620Z AUTO 21005KT 150V240 CAVOK 11/08 Q1018 NOSIG
07:50
V
10 °C 10 km+ - 190° 190° 4 kt METAR EDDG 130550Z AUTO 19004KT 160V230 CAVOK 10/08 Q1018 NOSIG
07:20
V
10 °C 10 km+ - 200° 200° 3 kt METAR EDDG 130520Z AUTO 20003KT 150V230 CAVOK 10/07 Q1018 NOSIG
06:50
V
9 °C 10 km+ - 180° 180° 3 kt METAR EDDG 130450Z AUTO 18003KT 150V250 CAVOK 09/07 Q1018 NOSIG
06:20
V
9 °C 10 km+ - 190° 190° 3 kt METAR EDDG 130420Z AUTO 19003KT 140V220 CAVOK 09/07 Q1018 NOSIG
05:50
V
9 °C 10 km+ - 170° 170° 3 kt METAR EDDG 130350Z AUTO 17003KT 130V230 CAVOK 09/07 Q1018 NOSIG
05:20
V
8 °C 10 km+ - Var Var 2 kt METAR EDDG 130320Z AUTO VRB02KT CAVOK 08/07 Q1018 NOSIG
04:50
V
9 °C 10 km+ - 220° 220° 3 kt METAR EDDG 130250Z AUTO 22003KT 170V250 CAVOK 09/07 Q1018
04:20
V
8 °C 10 km+ - 180° 180° 3 kt METAR EDDG 130220Z AUTO 18003KT 140V220 CAVOK 08/07 Q1019 NOSIG
03:50
V
9 °C 10 km+ - 190° 190° 3 kt METAR EDDG 130150Z AUTO 19003KT 150V240 CAVOK 09/07 Q1019 NOSIG
03:20
V
8 °C 10 km+ - Var Var 2 kt METAR EDDG 130120Z AUTO VRB02KT CAVOK 08/06 Q1019 NOSIG
02:50
V
9 °C 10 km+ - 230° 230° 4 kt METAR EDDG 130050Z AUTO 23004KT 190V260 9999 FEW048 09/06 Q1019
02:20
V
9 °C 10 km+ - 230° 230° 3 kt METAR EDDG 130020Z AUTO 23003KT CAVOK 09/06 Q1019 NOSIG
01:50
V
8 °C 10 km+ - 250° 250° 3 kt METAR EDDG 122350Z AUTO 25003KT CAVOK 08/06 Q1019
01:20
V
9 °C 10 km+ - 260° 260° 3 kt METAR EDDG 122320Z AUTO 26003KT CAVOK 09/06 Q1019 NOSIG
00:50
V
9 °C 10 km+ - 260° 260° 3 kt METAR EDDG 122250Z AUTO 26003KT CAVOK 09/06 Q1019 NOSIG
00:20
V
10 °C 10 km+ - 250° 250° 4 kt METAR EDDG 122220Z AUTO 25004KT CAVOK 10/07 Q1019 NOSIG

12 de junio de 2024

Hora Código Tiempo Temp. Visibilidad Cielo nuboso Viento METAR/SPECI
23:50
V
10 °C 10 km+ - 270° 270° 5 kt METAR EDDG 122150Z AUTO 27005KT 9999 FEW042 10/06 Q1019 NOSIG
23:20
V
10 °C 10 km+ - 260° 260° 4 kt METAR EDDG 122120Z AUTO 26004KT CAVOK 10/06 Q1019 NOSIG
22:50
V
10 °C 10 km+ - 260° 260° 3 kt METAR EDDG 122050Z AUTO 26003KT CAVOK 10/06 Q1019 NOSIG
22:20
V
10 °C 10 km+ - 280° 280° 4 kt METAR EDDG 122020Z AUTO 28004KT CAVOK 10/06 Q1018 NOSIG
21:50
V
12 °C 10 km+ - 280° 280° 6 kt METAR EDDG 121950Z AUTO 28006KT CAVOK 12/06 Q1018 NOSIG
21:20
V
12 °C 10 km+ - 300° 300° 6 kt METAR EDDG 121920Z AUTO 30006KT 270V330 9999 FEW042 12/05 Q1018 NOSIG
20:50
V
13 °C 10 km+ - 290° 290° 9 kt METAR EDDG 121850Z AUTO 29009KT 250V330 9999 FEW036 SCT046 13/06 Q1018 NOSIG
20:20
V
14 °C 10 km+ - 300° 300° 8 kt METAR EDDG 121820Z AUTO 30008KT 9999 SCT040 14/06 Q1018 NOSIG
19:50
V
14 °C 10 km+ - 290° 290° 7 kt METAR EDDG 121750Z AUTO 29007KT 9999 FEW041 14/07 Q1018 NOSIG
19:20
V
14 °C 10 km+ - 270° 270° 6 kt METAR EDDG 121720Z AUTO 27006KT 250V320 9999 SCT038 14/09 Q1018 NOSIG
18:50
V
14 °C 10 km+ - 230° 230° 6 kt METAR EDDG 121650Z AUTO 23006KT 190V260 9999 FEW038 14/08 Q1018 NOSIG
18:20
V
13 °C 10 km+ - 240° 240° 6 kt METAR EDDG 121620Z AUTO 24006KT 210V270 9999 FEW038 13/08 Q1018 NOSIG
17:50
V
12 °C 10 km+ - 240° 240° 6 kt METAR EDDG 121550Z AUTO 24006KT 200V260 9999 FEW036 12/09 Q1018 NOSIG
17:20
V
12 °C 10 km+ 4.400 ft 250° 250° 8 kt METAR EDDG 121520Z AUTO 25008KT 9999 -SHRA FEW030 BKN044 FEW///CB 12/09 Q1018 NOSIG
16:50
V
14 °C 10 km+ 3.500 ft 300° 300° 9 kt METAR EDDG 121450Z AUTO 30009KT 270V340 9999 BKN035 BKN045 14/07 Q1018 TEMPO SHRA BKN030TCU
16:20
V
14 °C 10 km+ - 280° 280° 8 kt METAR EDDG 121420Z AUTO 28008KT 250V310 CAVOK 14/07 Q1018 TEMPO SHRA SCT030TCU
15:50
V
14 °C 10 km+ - 270° 270° 11 kt METAR EDDG 121350Z AUTO 27011KT 9999 FEW047 14/07 Q1018 TEMPO SHRA SCT030TCU
15:20
V
16 °C 10 km+ - 270° 270° 12 kt METAR EDDG 121320Z AUTO 27012KT 240V300 9999 FEW039 16/06 Q1018 TEMPO SHRA SCT030TCU
14:50
V
14 °C 10 km+ - 320° 320° 7 kt METAR EDDG 121250Z AUTO 32007KT 280V350 9999 FEW038 14/08 Q1018 TEMPO SHRA SCT030TCU
14:20
V
13 °C 10 km+ 4.800 ft 300° 300° 11 kt METAR EDDG 121220Z AUTO 30011KT 230V340 9999 -RA SCT037 BKN048 13/07 Q1018 TEMPO SHRA SCT030TCU
13:50
V
15 °C 10 km+ - 250° 250° 11 kt METAR EDDG 121150Z AUTO 25011KT CAVOK 15/06 Q1018 TEMPO SHRA
13:20
V
14 °C 10 km+ - 230° 230° 7 kt METAR EDDG 121120Z AUTO 23007KT 9999 VCSH FEW042 FEW///CB 14/08 Q1018 BECMG 26012KT
12:50
V
12 °C 10 km+ 3.300 ft 260° 260° 13 kt METAR EDDG 121050Z AUTO 26013KT 9999 -SHRA SCT029 BKN033 BKN043 FEW///CB 12/08 Q1018 RESHRA NOSIG
12:20
V
15 °C 10 km+ - 260° 260° 9 kt METAR EDDG 121020Z AUTO 26009KT 230V290 9999 SCT034 SCT048 15/07 Q1018 NOSIG
11:50
V
14 °C 10 km+ - 270° 270° 7 kt METAR EDDG 120950Z AUTO 27007KT 250V340 9999 SCT032 14/07 Q1018 TEMPO 27012KT
11:20
V
14 °C 10 km+ - 260° 260° 12 kt METAR EDDG 120920Z AUTO 26012KT 9999 FEW025 14/07 Q1018 NOSIG
10:50
V
14 °C 10 km+ - 240° 240° 8 kt METAR EDDG 120850Z AUTO 24008KT 9999 FEW026 SCT048 14/09 Q1018 NOSIG
10:20
V
12 °C 10 km+ - 250° 250° 6 kt METAR EDDG 120820Z AUTO 25006KT 220V280 9999 FEW023 SCT041 12/09 Q1018 NOSIG
09:50
V
11 °C 10 km+ 3.900 ft 270° 270° 10 kt METAR EDDG 120750Z AUTO 27010KT 9999 -RA FEW022 BKN039 BKN049 11/08 Q1018 RESHRA NOSIG
09:20
V
13 °C 10 km+ - 250° 250° 9 kt METAR EDDG 120720Z AUTO 25009KT 220V300 9999 VCSH FEW016 FEW///CB 13/08 Q1018 NOSIG
08:50
V
12 °C 10 km+ - 260° 260° 9 kt METAR EDDG 120650Z AUTO 26009KT 230V290 9999 SCT015 12/08 Q1018 NOSIG
08:20
V
11 °C 10 km+ - 260° 260° 8 kt METAR EDDG 120620Z AUTO 26008KT 9999 FEW014 11/08 Q1018 NOSIG
07:50
V
11 °C 10 km+ - 250° 250° 8 kt METAR EDDG 120550Z AUTO 25008KT 9999 SCT048 11/08 Q1018 NOSIG
Cambiar esta información